createdAt,value
2018-12-13T00:00:46.133Z,0.00
2018-12-13T00:01:46.121Z,0.00
2018-12-13T00:02:46.103Z,0.00
2018-12-13T00:03:46.101Z,0.00
2018-12-13T00:04:46.091Z,0.00
2018-12-13T00:05:46.073Z,0.00
2018-12-13T00:06:46.065Z,0.00
2018-12-13T00:07:48.085Z,0.00
2018-12-13T00:08:46.038Z,0.00
2018-12-13T00:09:46.017Z,0.00
2018-12-13T00:10:46.017Z,0.00
2018-12-13T00:11:46.001Z,0.00
2018-12-13T00:12:45.997Z,0.00
2018-12-13T00:13:45.977Z,0.00
2018-12-13T00:14:45.963Z,0.00
2018-12-13T00:15:45.953Z,0.00
2018-12-13T00:16:45.940Z,0.00
2018-12-13T00:17:45.929Z,0.00
2018-12-13T00:18:45.920Z,0.00
2018-12-13T00:19:45.904Z,0.00
2018-12-13T00:20:45.892Z,0.00
2018-12-13T00:21:45.880Z,0.00
2018-12-13T00:22:45.870Z,0.00
2018-12-13T00:23:45.858Z,0.00
2018-12-13T00:24:45.845Z,0.00
2018-12-13T00:25:45.831Z,0.00
2018-12-13T00:26:45.822Z,0.00
2018-12-13T00:27:45.811Z,0.00
2018-12-13T00:28:45.797Z,0.00
2018-12-13T00:29:45.785Z,0.00
2018-12-13T00:30:45.773Z,0.00
2018-12-13T00:31:45.759Z,0.00
2018-12-13T00:32:45.751Z,0.00
2018-12-13T00:33:45.738Z,0.00
2018-12-13T00:34:45.727Z,0.00
2018-12-13T00:35:45.717Z,0.00
2018-12-13T00:36:45.701Z,0.00
2018-12-13T00:37:45.682Z,0.00
2018-12-13T00:38:45.680Z,0.00
2018-12-13T00:39:45.667Z,0.00
2018-12-13T00:40:45.659Z,0.00
2018-12-13T00:41:45.642Z,0.00
2018-12-13T00:42:45.627Z,0.00
2018-12-13T00:43:45.619Z,0.00
2018-12-13T00:44:45.608Z,0.00
2018-12-13T00:45:45.597Z,0.00
2018-12-13T00:46:45.585Z,0.00
2018-12-13T00:47:45.571Z,0.00
2018-12-13T00:48:45.558Z,0.00
2018-12-13T00:49:45.554Z,0.00
2018-12-13T00:50:45.537Z,0.00
2018-12-13T00:51:45.529Z,0.00
2018-12-13T00:52:45.506Z,0.00
2018-12-13T00:53:45.517Z,0.00
2018-12-13T00:54:45.488Z,0.00
2018-12-13T00:55:45.481Z,0.00
2018-12-13T00:56:45.464Z,0.00
2018-12-13T00:57:45.452Z,0.00
2018-12-13T00:58:45.440Z,0.00
2018-12-13T00:59:45.475Z,0.00
2018-12-13T01:00:45.416Z,0.00
2018-12-13T01:01:45.407Z,0.00
2018-12-13T01:02:47.218Z,0.00
2018-12-13T01:03:45.379Z,0.00
2018-12-13T01:04:45.369Z,0.00
2018-12-13T01:05:45.358Z,0.00
2018-12-13T01:06:46.095Z,0.00
2018-12-13T01:07:45.338Z,0.00
2018-12-13T01:08:45.320Z,0.00
2018-12-13T01:09:45.309Z,0.00
2018-12-13T01:10:45.298Z,0.00
2018-12-13T01:11:45.286Z,0.00
2018-12-13T01:12:45.274Z,0.00
2018-12-13T01:13:45.259Z,0.00
2018-12-13T01:14:45.250Z,0.00
2018-12-13T01:15:45.237Z,0.00
2018-12-13T01:16:45.227Z,0.00
2018-12-13T01:17:45.214Z,0.00
2018-12-13T01:18:45.205Z,0.00
2018-12-13T01:19:45.191Z,0.00
2018-12-13T01:20:45.179Z,0.00
2018-12-13T01:21:45.170Z,0.00
2018-12-13T01:22:45.153Z,0.00
2018-12-13T01:23:45.143Z,0.00
2018-12-13T01:24:45.142Z,0.00
2018-12-13T01:25:45.114Z,0.00
2018-12-13T01:26:45.106Z,0.00
2018-12-13T01:27:45.095Z,0.00
2018-12-13T01:28:45.084Z,0.00
2018-12-13T01:29:45.070Z,0.00
2018-12-13T01:30:45.059Z,0.00
2018-12-13T01:31:45.055Z,0.00
2018-12-13T01:32:45.034Z,0.00
2018-12-13T01:33:45.022Z,0.00
2018-12-13T01:34:45.010Z,0.00
2018-12-13T01:35:44.998Z,0.00
2018-12-13T01:36:44.981Z,0.00
2018-12-13T01:37:44.974Z,0.00
2018-12-13T01:38:44.961Z,0.00
2018-12-13T01:39:44.951Z,0.00
2018-12-13T01:40:44.939Z,0.00
2018-12-13T01:41:44.927Z,0.00
2018-12-13T01:42:44.913Z,0.00
2018-12-13T01:43:44.909Z,0.00
2018-12-13T01:44:44.891Z,0.00
2018-12-13T01:45:44.877Z,0.00
2018-12-13T01:46:44.859Z,0.00
2018-12-13T01:47:44.850Z,0.00
2018-12-13T01:48:44.847Z,0.00
2018-12-13T01:49:44.830Z,0.00
2018-12-13T01:50:44.822Z,0.00
2018-12-13T01:51:44.807Z,0.00
2018-12-13T01:52:44.838Z,0.00
2018-12-13T01:53:44.783Z,0.00
2018-12-13T01:54:44.774Z,0.00
2018-12-13T01:55:44.757Z,0.00
2018-12-13T01:56:44.743Z,0.00
2018-12-13T01:57:44.723Z,0.00
2018-12-13T01:58:44.723Z,0.00
2018-12-13T01:59:44.711Z,0.00
2018-12-13T02:00:44.697Z,0.00
2018-12-13T02:01:44.689Z,0.00
2018-12-13T02:02:44.677Z,0.00
2018-12-13T02:03:44.661Z,0.00
2018-12-13T02:04:44.649Z,0.00
2018-12-13T02:05:44.642Z,0.00
2018-12-13T02:06:44.620Z,0.00
2018-12-13T02:07:44.615Z,0.00
2018-12-13T02:08:44.602Z,0.00
2018-12-13T02:09:44.586Z,0.00
2018-12-13T02:10:44.576Z,0.00
2018-12-13T02:11:44.566Z,0.00
2018-12-13T02:12:44.554Z,0.00
2018-12-13T02:13:44.546Z,0.00
2018-12-13T02:14:44.531Z,0.00
2018-12-13T02:15:44.518Z,0.00
2018-12-13T02:16:44.503Z,0.00
2018-12-13T02:17:44.494Z,0.00
2018-12-13T02:18:44.482Z,0.00
2018-12-13T02:19:44.471Z,0.00
2018-12-13T02:20:44.454Z,0.00
2018-12-13T02:21:44.465Z,0.00
2018-12-13T02:22:44.433Z,0.00
2018-12-13T02:23:44.421Z,0.00
2018-12-13T02:24:44.409Z,0.00
2018-12-13T02:25:44.390Z,0.00
2018-12-13T02:26:44.386Z,0.00
2018-12-13T02:27:44.382Z,0.00
2018-12-13T02:28:44.362Z,0.00
2018-12-13T02:29:44.349Z,0.00
2018-12-13T02:30:44.339Z,0.00
2018-12-13T02:31:44.326Z,0.00
2018-12-13T02:32:44.317Z,0.00
2018-12-13T02:33:44.304Z,0.00
2018-12-13T02:34:44.292Z,0.00
2018-12-13T02:35:44.278Z,0.00
2018-12-13T02:36:44.266Z,0.00
2018-12-13T02:37:44.255Z,0.00
2018-12-13T02:38:44.246Z,0.00
2018-12-13T02:39:44.299Z,0.00
2018-12-13T02:40:44.218Z,0.00
2018-12-13T02:41:44.199Z,0.00
2018-12-13T02:42:44.193Z,0.00
2018-12-13T02:43:44.192Z,0.00
2018-12-13T02:44:44.209Z,0.00
2018-12-13T02:45:44.159Z,0.00
2018-12-13T02:46:44.143Z,0.00
2018-12-13T02:47:44.129Z,0.00
2018-12-13T02:48:44.121Z,0.00
2018-12-13T02:49:44.111Z,0.00
2018-12-13T02:50:44.101Z,0.00
2018-12-13T02:51:44.998Z,0.00
2018-12-13T02:52:44.075Z,0.00
2018-12-13T02:53:44.062Z,0.00
2018-12-13T02:54:44.061Z,0.00
2018-12-13T02:55:44.049Z,0.00
2018-12-13T02:56:44.032Z,0.00
2018-12-13T02:57:44.015Z,0.00
2018-12-13T02:58:43.997Z,0.00
2018-12-13T02:59:43.995Z,0.00
2018-12-13T03:00:43.982Z,0.00
2018-12-13T03:01:43.968Z,0.00
2018-12-13T03:02:43.957Z,0.00
2018-12-13T03:03:43.944Z,0.00
2018-12-13T03:04:43.932Z,0.00
2018-12-13T03:05:43.925Z,0.00
2018-12-13T03:06:43.908Z,0.00
2018-12-13T03:07:43.896Z,0.00
2018-12-13T03:08:43.892Z,0.00
2018-12-13T03:09:43.868Z,0.00
2018-12-13T03:10:43.861Z,0.00
2018-12-13T03:11:43.849Z,0.00
2018-12-13T03:12:43.838Z,0.00
2018-12-13T03:13:43.821Z,0.00
2018-12-13T03:14:43.813Z,0.00
2018-12-13T03:15:43.801Z,0.00
2018-12-13T03:16:43.792Z,0.00
2018-12-13T03:17:43.777Z,0.00
2018-12-13T03:18:43.766Z,0.00
2018-12-13T03:19:43.757Z,0.00
2018-12-13T03:20:43.747Z,0.00
2018-12-13T03:21:43.727Z,0.00
2018-12-13T03:22:43.718Z,0.00
2018-12-13T03:23:43.704Z,0.00
2018-12-13T03:24:43.697Z,0.00
2018-12-13T03:25:43.683Z,0.00
2018-12-13T03:26:43.670Z,0.00
2018-12-13T03:27:43.659Z,0.00
2018-12-13T03:28:43.650Z,0.00
2018-12-13T03:29:43.641Z,0.00
2018-12-13T03:30:43.627Z,0.00
2018-12-13T03:31:43.612Z,0.00
2018-12-13T03:32:43.596Z,0.00
2018-12-13T03:33:43.583Z,0.00
2018-12-13T03:34:43.578Z,0.00
2018-12-13T03:35:43.567Z,0.00
2018-12-13T03:36:43.554Z,0.00
2018-12-13T03:37:43.538Z,0.00
2018-12-13T03:38:43.530Z,0.00
2018-12-13T03:39:43.513Z,0.00
2018-12-13T03:40:43.500Z,0.00
2018-12-13T03:41:43.494Z,0.00
2018-12-13T03:42:43.474Z,0.00
2018-12-13T03:43:43.464Z,0.00
2018-12-13T03:44:43.460Z,0.00
2018-12-13T03:45:43.448Z,0.00
2018-12-13T03:46:43.432Z,0.00
2018-12-13T03:47:43.416Z,0.00
2018-12-13T03:48:43.403Z,0.00
2018-12-13T03:49:43.392Z,0.00
2018-12-13T03:50:43.381Z,0.00
2018-12-13T03:51:43.368Z,0.00
2018-12-13T03:52:43.355Z,0.00
2018-12-13T03:53:43.342Z,0.00
2018-12-13T03:54:43.330Z,0.00
2018-12-13T03:55:43.322Z,0.00
2018-12-13T03:56:43.306Z,0.00
2018-12-13T03:57:43.299Z,0.00
2018-12-13T03:58:43.278Z,0.00
2018-12-13T03:59:43.292Z,0.00
2018-12-13T04:00:43.260Z,0.00
2018-12-13T04:01:43.247Z,0.00
2018-12-13T04:02:43.236Z,0.00
2018-12-13T04:03:43.224Z,0.00
2018-12-13T04:04:43.214Z,0.00
2018-12-13T04:05:43.206Z,0.00
2018-12-13T04:06:43.187Z,0.00
2018-12-13T04:07:43.222Z,0.00
2018-12-13T04:08:43.162Z,0.00
2018-12-13T04:09:43.152Z,0.00
2018-12-13T04:10:43.138Z,0.00
2018-12-13T04:11:43.128Z,0.00
2018-12-13T04:12:43.118Z,0.00
2018-12-13T04:13:43.106Z,0.00
2018-12-13T04:14:43.089Z,0.00
2018-12-13T04:15:43.073Z,0.00
2018-12-13T04:16:43.067Z,0.00
2018-12-13T04:17:43.055Z,0.00
2018-12-13T04:18:43.040Z,0.00
2018-12-13T04:19:43.023Z,0.00
2018-12-13T04:20:43.014Z,0.00
2018-12-13T04:21:43.001Z,0.00
2018-12-13T04:22:42.996Z,0.00
2018-12-13T04:23:42.990Z,0.00
2018-12-13T04:24:42.973Z,0.00
2018-12-13T04:25:42.951Z,0.00
2018-12-13T04:26:42.946Z,0.00
2018-12-13T04:27:42.937Z,0.00
2018-12-13T04:28:42.920Z,0.00
2018-12-13T04:29:42.908Z,0.00
2018-12-13T04:30:42.896Z,0.00
2018-12-13T04:31:42.885Z,0.00
2018-12-13T04:32:42.871Z,0.00
2018-12-13T04:33:42.860Z,0.00
2018-12-13T04:34:42.849Z,0.00
2018-12-13T04:35:42.843Z,0.00
2018-12-13T04:36:42.818Z,0.00
2018-12-13T04:37:42.813Z,0.00
2018-12-13T04:38:42.799Z,0.00
2018-12-13T04:39:42.787Z,0.00
2018-12-13T04:40:42.775Z,0.00
2018-12-13T04:41:42.765Z,0.00
2018-12-13T04:42:42.754Z,0.00
2018-12-13T04:43:42.738Z,0.00
2018-12-13T04:44:42.726Z,0.00
2018-12-13T04:45:42.712Z,0.00
2018-12-13T04:46:42.700Z,0.00
2018-12-13T04:47:42.689Z,0.00
2018-12-13T04:48:42.676Z,0.00
2018-12-13T04:49:42.663Z,0.00
2018-12-13T04:50:42.649Z,0.00
2018-12-13T04:51:42.640Z,0.00
2018-12-13T04:52:42.626Z,0.00
2018-12-13T04:53:42.620Z,0.00
2018-12-13T04:54:42.609Z,0.00
2018-12-13T04:55:42.590Z,0.00
2018-12-13T04:56:42.578Z,0.00
2018-12-13T04:57:42.564Z,0.00
2018-12-13T04:58:42.553Z,0.00
2018-12-13T04:59:42.546Z,0.00
2018-12-13T05:00:42.591Z,0.00
2018-12-13T05:01:42.517Z,0.00
2018-12-13T05:02:42.525Z,0.00
2018-12-13T05:03:42.493Z,0.00
2018-12-13T05:04:42.475Z,0.00
2018-12-13T05:05:42.467Z,0.00
2018-12-13T05:06:42.456Z,0.00
2018-12-13T05:07:42.446Z,0.00
2018-12-13T05:08:42.564Z,0.00
2018-12-13T05:09:42.418Z,0.00
2018-12-13T05:10:42.429Z,0.00
2018-12-13T05:11:42.437Z,0.00
2018-12-13T05:12:42.494Z,0.00
2018-12-13T05:13:42.371Z,0.00
2018-12-13T05:14:42.417Z,0.00
2018-12-13T05:15:42.346Z,0.00
2018-12-13T05:16:42.334Z,0.00
2018-12-13T05:17:42.325Z,0.00
2018-12-13T05:18:42.312Z,0.00
2018-12-13T05:19:42.298Z,0.00
2018-12-13T05:20:42.285Z,0.00
2018-12-13T05:21:43.622Z,0.00
2018-12-13T05:22:42.262Z,0.00
2018-12-13T05:23:42.254Z,0.00
2018-12-13T05:24:42.239Z,0.00
2018-12-13T05:25:42.229Z,0.00
2018-12-13T05:26:42.213Z,0.00
2018-12-13T05:27:42.201Z,0.00
2018-12-13T05:28:42.188Z,0.00
2018-12-13T05:29:42.175Z,0.00
2018-12-13T05:30:42.161Z,0.00
2018-12-13T05:31:42.156Z,0.00
2018-12-13T05:32:42.139Z,0.00
2018-12-13T05:33:42.128Z,0.00
2018-12-13T05:34:42.116Z,0.00
2018-12-13T05:35:42.105Z,0.00
2018-12-13T05:36:42.088Z,0.00
2018-12-13T05:37:48.156Z,0.00
2018-12-13T05:38:42.070Z,0.00
2018-12-13T05:39:42.055Z,0.00
2018-12-13T05:40:42.054Z,0.00
2018-12-13T05:41:42.033Z,0.00
2018-12-13T05:42:42.019Z,0.00
2018-12-13T05:43:42.005Z,0.00
2018-12-13T05:44:42.000Z,0.00
2018-12-13T05:45:41.988Z,0.00
2018-12-13T05:46:41.963Z,0.00
2018-12-13T05:47:41.965Z,0.00
2018-12-13T05:48:41.958Z,0.00
2018-12-13T05:49:41.937Z,0.00
2018-12-13T05:50:41.923Z,0.00
2018-12-13T05:51:41.913Z,0.00
2018-12-13T05:52:41.898Z,0.00
2018-12-13T05:53:41.889Z,0.00
2018-12-13T05:54:41.878Z,0.00
2018-12-13T05:55:41.866Z,0.00
2018-12-13T05:56:41.852Z,0.00
2018-12-13T05:57:41.831Z,0.00
2018-12-13T05:58:41.851Z,0.00
2018-12-13T05:59:41.817Z,0.00
2018-12-13T06:00:41.811Z,0.00
2018-12-13T06:01:41.792Z,0.00
2018-12-13T06:02:41.781Z,0.00
2018-12-13T06:03:41.765Z,0.00
2018-12-13T06:04:41.757Z,0.00
2018-12-13T06:05:41.744Z,0.00
2018-12-13T06:06:41.734Z,0.00
2018-12-13T06:07:41.727Z,0.00
2018-12-13T06:08:41.707Z,0.00
2018-12-13T06:09:41.699Z,0.00
2018-12-13T06:10:41.687Z,0.00
2018-12-13T06:11:41.672Z,0.00
2018-12-13T06:12:41.661Z,0.00
2018-12-13T06:13:41.656Z,0.00
2018-12-13T06:14:41.635Z,0.00
2018-12-13T06:15:41.628Z,0.00
2018-12-13T06:16:41.615Z,0.00
2018-12-13T06:17:41.618Z,0.00
2018-12-13T06:18:41.631Z,0.00
2018-12-13T06:19:41.570Z,0.00
2018-12-13T06:20:41.564Z,0.00
2018-12-13T06:21:41.570Z,0.00
2018-12-13T06:22:41.540Z,0.00
2018-12-13T06:23:41.530Z,0.00
2018-12-13T06:24:41.535Z,0.00
2018-12-13T06:25:41.499Z,0.00
2018-12-13T06:26:41.547Z,0.00
2018-12-13T06:27:41.480Z,0.00
2018-12-13T06:28:41.470Z,0.00
2018-12-13T06:29:41.902Z,0.00
2018-12-13T06:30:41.441Z,0.00
2018-12-13T06:31:41.453Z,0.00
2018-12-13T06:32:41.424Z,0.00
2018-12-13T06:33:41.400Z,0.00
2018-12-13T06:34:41.397Z,0.00
2018-12-13T06:35:41.410Z,0.00
2018-12-13T06:36:41.380Z,0.00
2018-12-13T06:37:41.420Z,0.00
2018-12-13T06:38:41.379Z,0.00
2018-12-13T06:39:41.326Z,0.00
2018-12-13T06:40:41.329Z,0.00
2018-12-13T06:41:41.315Z,0.00
2018-12-13T06:42:41.302Z,0.00
2018-12-13T06:43:41.294Z,0.00
2018-12-13T06:44:41.277Z,0.00
2018-12-13T06:45:41.266Z,0.00
2018-12-13T06:46:41.252Z,0.00
2018-12-13T06:47:41.240Z,0.00
2018-12-13T06:48:41.230Z,0.00
2018-12-13T06:49:41.218Z,0.00
2018-12-13T06:50:41.206Z,0.00
2018-12-13T06:51:41.202Z,0.00
2018-12-13T06:52:41.182Z,0.00
2018-12-13T06:53:41.160Z,0.00
2018-12-13T06:54:41.169Z,0.00
2018-12-13T06:55:41.146Z,0.00
2018-12-13T06:56:41.136Z,5.63
2018-12-13T06:57:41.124Z,5.63
2018-12-13T06:58:41.108Z,5.63
2018-12-13T06:59:41.104Z,5.63
2018-12-13T07:00:41.086Z,5.63
2018-12-13T07:01:41.074Z,5.63
2018-12-13T07:02:41.062Z,5.63
2018-12-13T07:03:41.051Z,5.63
2018-12-13T07:04:41.041Z,5.63
2018-12-13T07:05:41.027Z,5.63
2018-12-13T07:06:41.016Z,5.63
2018-12-13T07:07:41.013Z,11.25
2018-12-13T07:08:40.993Z,11.25
2018-12-13T07:09:40.977Z,11.25
2018-12-13T07:10:40.966Z,11.25
2018-12-13T07:11:40.964Z,16.88
2018-12-13T07:12:40.946Z,16.88
2018-12-13T07:13:40.933Z,22.50
2018-12-13T07:14:40.921Z,28.13
2018-12-13T07:15:40.928Z,28.13
2018-12-13T07:16:40.896Z,28.13
2018-12-13T07:17:40.888Z,28.13
2018-12-13T07:18:40.873Z,28.13
2018-12-13T07:19:40.864Z,22.50
2018-12-13T07:20:40.846Z,22.50
2018-12-13T07:21:40.835Z,22.50
2018-12-13T07:22:40.824Z,22.50
2018-12-13T07:23:40.815Z,28.13
2018-12-13T07:24:40.806Z,28.13
2018-12-13T07:25:40.790Z,28.13
2018-12-13T07:26:40.779Z,28.13
2018-12-13T07:27:40.769Z,22.50
2018-12-13T07:28:40.754Z,22.50
2018-12-13T07:29:40.743Z,22.50
2018-12-13T07:30:40.722Z,28.13
2018-12-13T07:31:40.721Z,28.13
2018-12-13T07:32:40.705Z,28.13
2018-12-13T07:33:40.688Z,28.13
2018-12-13T07:34:40.693Z,28.13
2018-12-13T07:35:40.676Z,28.13
2018-12-13T07:36:40.662Z,39.38
2018-12-13T07:37:40.655Z,39.38
2018-12-13T07:38:40.642Z,39.38
2018-12-13T07:39:40.627Z,39.38
2018-12-13T07:40:40.613Z,39.38
2018-12-13T07:41:40.610Z,33.75
2018-12-13T07:42:40.588Z,33.75
2018-12-13T07:43:40.583Z,33.75
2018-12-13T07:44:40.572Z,33.75
2018-12-13T07:45:40.558Z,33.75
2018-12-13T07:46:40.548Z,33.75
2018-12-13T07:47:40.531Z,28.13
2018-12-13T07:48:40.525Z,33.75
2018-12-13T07:49:40.512Z,45.00
2018-12-13T07:50:40.501Z,39.38
2018-12-13T07:51:40.490Z,33.75
2018-12-13T07:52:40.477Z,28.13
2018-12-13T07:53:40.467Z,28.13
2018-12-13T07:54:40.455Z,28.13
2018-12-13T07:55:40.443Z,33.75
2018-12-13T07:56:40.423Z,33.75
2018-12-13T07:57:40.421Z,33.75
2018-12-13T07:58:40.409Z,39.38
2018-12-13T07:59:40.395Z,33.75
2018-12-13T08:00:40.400Z,28.13
2018-12-13T08:01:40.377Z,22.50
2018-12-13T08:02:40.381Z,22.50
2018-12-13T08:03:40.354Z,22.50
2018-12-13T08:04:40.344Z,22.50
2018-12-13T08:05:40.327Z,22.50
2018-12-13T08:06:40.324Z,22.50
2018-12-13T08:07:40.306Z,22.50
2018-12-13T08:08:40.301Z,22.50
2018-12-13T08:09:40.281Z,22.50
2018-12-13T08:10:40.270Z,22.50
2018-12-13T08:11:40.258Z,28.13
2018-12-13T08:12:40.251Z,28.13
2018-12-13T08:13:40.235Z,28.13
2018-12-13T08:14:40.222Z,33.75
2018-12-13T08:15:40.203Z,28.13
2018-12-13T08:16:40.204Z,33.75
2018-12-13T08:17:40.190Z,39.38
2018-12-13T08:18:40.188Z,39.38
2018-12-13T08:19:40.165Z,45.00
2018-12-13T08:20:40.153Z,45.00
2018-12-13T08:21:40.142Z,50.63
2018-12-13T08:22:40.133Z,45.00
2018-12-13T08:23:40.118Z,39.38
2018-12-13T08:24:40.105Z,45.00
2018-12-13T08:25:40.094Z,39.38
2018-12-13T08:26:40.083Z,33.75
2018-12-13T08:27:40.069Z,33.75
2018-12-13T08:28:40.074Z,39.38
2018-12-13T08:29:40.046Z,50.63
2018-12-13T08:30:40.036Z,56.25
2018-12-13T08:31:40.036Z,50.63
2018-12-13T08:32:40.005Z,50.63
2018-12-13T08:33:40.006Z,50.63
2018-12-13T08:34:39.987Z,50.63
2018-12-13T08:35:39.977Z,45.00
2018-12-13T08:36:39.964Z,50.63
2018-12-13T08:37:39.951Z,56.25
2018-12-13T08:38:39.938Z,56.25
2018-12-13T08:39:39.931Z,56.25
2018-12-13T08:40:39.908Z,67.50
2018-12-13T08:41:39.905Z,61.88
2018-12-13T08:42:39.890Z,67.50
2018-12-13T08:43:39.881Z,56.25
2018-12-13T08:44:39.873Z,73.13
2018-12-13T08:45:39.858Z,78.75
2018-12-13T08:46:39.846Z,73.13
2018-12-13T08:47:39.834Z,78.75
2018-12-13T08:48:39.823Z,73.13
2018-12-13T08:49:39.808Z,73.13
2018-12-13T08:50:39.803Z,73.13
2018-12-13T08:51:39.787Z,67.50
2018-12-13T08:52:39.775Z,67.50
2018-12-13T08:53:39.764Z,67.50
2018-12-13T08:54:39.748Z,67.50
2018-12-13T08:55:39.739Z,61.88
2018-12-13T08:56:39.735Z,56.25
2018-12-13T08:57:39.718Z,56.25
2018-12-13T08:58:39.708Z,56.25
2018-12-13T08:59:39.701Z,56.25
2018-12-13T09:00:39.682Z,56.25
2018-12-13T09:01:39.670Z,56.25
2018-12-13T09:02:39.661Z,50.63
2018-12-13T09:03:39.651Z,50.63
2018-12-13T09:04:39.637Z,50.63
2018-12-13T09:05:39.625Z,50.63
2018-12-13T09:06:39.613Z,50.63
2018-12-13T09:07:39.603Z,56.25
2018-12-13T09:08:39.590Z,61.88
2018-12-13T09:09:39.576Z,61.88
2018-12-13T09:10:39.565Z,61.88
2018-12-13T09:11:39.549Z,67.50
2018-12-13T09:12:39.541Z,73.13
2018-12-13T09:13:39.530Z,67.50
2018-12-13T09:14:39.519Z,61.88
2018-12-13T09:15:39.507Z,61.88
2018-12-13T09:16:39.495Z,61.88
2018-12-13T09:17:39.484Z,67.50
2018-12-13T09:18:39.478Z,61.88
2018-12-13T09:19:39.460Z,67.50
2018-12-13T09:20:39.447Z,78.75
2018-12-13T09:21:39.436Z,73.13
2018-12-13T09:22:39.425Z,73.13
2018-12-13T09:23:39.411Z,78.75
2018-12-13T09:24:39.400Z,90.00
2018-12-13T09:25:39.388Z,95.63
2018-12-13T09:26:39.379Z,90.00
2018-12-13T09:27:39.366Z,90.00
2018-12-13T09:28:39.356Z,95.63
2018-12-13T09:29:39.347Z,101.25
2018-12-13T09:30:39.331Z,112.50
2018-12-13T09:31:39.386Z,118.13
2018-12-13T09:32:39.306Z,118.13
2018-12-13T09:33:39.291Z,129.38
2018-12-13T09:34:39.286Z,140.63
2018-12-13T09:35:39.271Z,180.00
2018-12-13T09:36:39.260Z,180.00
2018-12-13T09:37:39.249Z,376.88
2018-12-13T09:38:39.942Z,168.75
2018-12-13T09:39:39.226Z,174.38
2018-12-13T09:40:39.213Z,163.13
2018-12-13T09:41:39.206Z,157.50
2018-12-13T09:42:39.199Z,151.88
2018-12-13T09:43:39.178Z,146.25
2018-12-13T09:44:39.171Z,168.75
2018-12-13T09:45:39.173Z,191.25
2018-12-13T09:46:39.148Z,219.38
2018-12-13T09:47:39.142Z,185.63
2018-12-13T09:48:39.129Z,196.88
2018-12-13T09:49:39.111Z,286.88
2018-12-13T09:50:39.106Z,309.38
2018-12-13T09:51:39.097Z,343.13
2018-12-13T09:52:39.087Z,405.00
2018-12-13T09:53:39.068Z,416.25
2018-12-13T09:54:39.066Z,371.25
2018-12-13T09:55:39.054Z,320.63
2018-12-13T09:56:39.041Z,281.25
2018-12-13T09:57:39.038Z,326.25
2018-12-13T09:58:39.027Z,382.50
2018-12-13T09:59:39.009Z,360.00
2018-12-13T10:00:38.998Z,315.00
2018-12-13T10:01:38.990Z,286.88
2018-12-13T10:02:38.979Z,253.13
2018-12-13T10:03:38.973Z,208.13
2018-12-13T10:04:38.965Z,174.38
2018-12-13T10:05:38.947Z,163.13
2018-12-13T10:06:38.970Z,163.13
2018-12-13T10:07:38.924Z,157.50
2018-12-13T10:08:38.915Z,157.50
2018-12-13T10:09:38.906Z,174.38
2018-12-13T10:10:38.899Z,168.75
2018-12-13T10:11:38.883Z,174.38
2018-12-13T10:12:38.873Z,174.38
2018-12-13T10:13:38.862Z,157.50
2018-12-13T10:14:38.852Z,146.25
2018-12-13T10:15:38.854Z,163.13
2018-12-13T10:16:38.829Z,213.75
2018-12-13T10:17:38.822Z,241.88
2018-12-13T10:18:38.812Z,253.13
2018-12-13T10:19:38.798Z,225.00
2018-12-13T10:20:38.784Z,230.63
2018-12-13T10:21:38.771Z,241.88
2018-12-13T10:22:38.766Z,236.25
2018-12-13T10:23:38.756Z,241.88
2018-12-13T10:24:38.744Z,230.63
2018-12-13T10:25:38.734Z,275.63
2018-12-13T10:26:38.720Z,303.75
2018-12-13T10:27:38.709Z,292.50
2018-12-13T10:28:38.701Z,281.25
2018-12-13T10:29:38.699Z,292.50
2018-12-13T10:30:38.680Z,309.38
2018-12-13T10:31:38.667Z,264.38
2018-12-13T10:32:38.657Z,275.63
2018-12-13T10:33:38.643Z,281.25
2018-12-13T10:34:38.635Z,230.63
2018-12-13T10:35:38.661Z,196.88
2018-12-13T10:36:38.618Z,208.13
2018-12-13T10:37:38.601Z,219.38
2018-12-13T10:38:38.593Z,247.50
2018-12-13T10:39:38.585Z,286.88
2018-12-13T10:40:38.572Z,343.13
2018-12-13T10:41:38.559Z,371.25
2018-12-13T10:42:38.548Z,371.25
2018-12-13T10:43:38.533Z,393.75
2018-12-13T10:44:38.528Z,410.63
2018-12-13T10:45:38.540Z,388.13
2018-12-13T10:46:38.571Z,348.75
2018-12-13T10:47:38.496Z,320.63
2018-12-13T10:48:38.485Z,292.50
2018-12-13T10:49:38.473Z,309.38
2018-12-13T10:50:38.464Z,343.13
2018-12-13T10:51:38.460Z,354.38
2018-12-13T10:52:38.443Z,326.25
2018-12-13T10:53:38.429Z,264.38
2018-12-13T10:54:38.424Z,236.25
2018-12-13T10:55:38.408Z,225.00
2018-12-13T10:56:38.443Z,281.25
2018-12-13T10:57:38.391Z,298.13
2018-12-13T10:58:38.384Z,258.75
2018-12-13T10:59:38.372Z,258.75
2018-12-13T11:00:38.362Z,286.88
2018-12-13T11:01:38.346Z,298.13
2018-12-13T11:02:38.338Z,315.00
2018-12-13T11:03:38.328Z,331.88
2018-12-13T11:04:38.317Z,354.38
2018-12-13T11:05:38.306Z,348.75
2018-12-13T11:06:38.300Z,360.00
2018-12-13T11:07:38.283Z,371.25
2018-12-13T11:08:38.277Z,382.50
2018-12-13T11:09:38.264Z,399.38
2018-12-13T11:10:38.254Z,388.13
2018-12-13T11:11:38.245Z,348.75
2018-12-13T11:12:38.223Z,309.38
2018-12-13T11:13:38.223Z,320.63
2018-12-13T11:14:38.215Z,337.50
2018-12-13T11:15:38.197Z,393.75
2018-12-13T11:16:38.195Z,500.63
2018-12-13T11:17:38.184Z,579.38
2018-12-13T11:18:38.177Z,601.88
2018-12-13T11:19:38.164Z,478.13
2018-12-13T11:20:38.154Z,354.38
2018-12-13T11:21:38.147Z,382.50
2018-12-13T11:22:38.138Z,455.63
2018-12-13T11:23:38.126Z,455.63
2018-12-13T11:24:38.116Z,461.25
2018-12-13T11:25:38.688Z,466.88
2018-12-13T11:26:38.100Z,472.50
2018-12-13T11:27:38.095Z,523.13
2018-12-13T11:28:38.080Z,613.13
2018-12-13T11:29:38.076Z,781.88
2018-12-13T11:30:38.078Z,781.88
2018-12-13T11:31:38.042Z,776.25
2018-12-13T11:32:38.043Z,961.88
2018-12-13T11:33:38.028Z,877.50
2018-12-13T11:34:38.033Z,911.25
2018-12-13T11:35:38.021Z,826.88
2018-12-13T11:36:38.014Z,759.38
2018-12-13T11:37:38.005Z,646.88
2018-12-13T11:38:37.999Z,461.25
2018-12-13T11:39:37.987Z,450.00
2018-12-13T11:40:37.993Z,551.25
2018-12-13T11:41:37.977Z,652.50
2018-12-13T11:42:37.972Z,849.38
2018-12-13T11:43:37.966Z,838.13
2018-12-13T11:44:37.956Z,838.13
2018-12-13T11:45:37.958Z,855.00
2018-12-13T11:46:37.936Z,742.50
2018-12-13T11:47:37.939Z,573.75
2018-12-13T11:48:37.931Z,528.75
2018-12-13T11:49:37.927Z,500.63
2018-12-13T11:50:37.919Z,489.38
2018-12-13T11:51:37.915Z,444.38
2018-12-13T11:52:37.910Z,427.50
2018-12-13T11:53:37.901Z,438.75
2018-12-13T11:54:37.904Z,528.75
2018-12-13T11:55:37.887Z,371.25
2018-12-13T11:56:37.880Z,354.38
2018-12-13T11:57:37.873Z,354.38
2018-12-13T11:58:37.865Z,354.38
2018-12-13T11:59:37.858Z,421.88
2018-12-13T12:00:37.851Z,545.63
2018-12-13T12:01:37.834Z,483.75
2018-12-13T12:02:37.844Z,523.13
2018-12-13T12:03:37.827Z,596.25
2018-12-13T12:04:37.820Z,450.00
2018-12-13T12:05:37.809Z,607.50
2018-12-13T12:06:37.804Z,596.25
2018-12-13T12:07:37.796Z,517.50
2018-12-13T12:08:37.793Z,450.00
2018-12-13T12:09:37.777Z,433.13
2018-12-13T12:10:37.773Z,478.13
2018-12-13T12:11:37.771Z,438.75
2018-12-13T12:12:37.748Z,433.13
2018-12-13T12:13:37.758Z,416.25
2018-12-13T12:14:37.744Z,382.50
2018-12-13T12:15:37.772Z,360.00
2018-12-13T12:16:37.730Z,354.38
2018-12-13T12:17:37.720Z,348.75
2018-12-13T12:18:37.738Z,348.75
2018-12-13T12:19:37.709Z,337.50
2018-12-13T12:20:39.105Z,331.88
2018-12-13T12:21:37.686Z,365.63
2018-12-13T12:22:37.671Z,388.13
2018-12-13T12:23:37.667Z,433.13
2018-12-13T12:24:37.661Z,427.50
2018-12-13T12:25:37.652Z,433.13
2018-12-13T12:26:37.644Z,382.50
2018-12-13T12:27:37.637Z,331.88
2018-12-13T12:28:37.625Z,337.50
2018-12-13T12:29:37.656Z,399.38
2018-12-13T12:30:37.612Z,388.13
2018-12-13T12:31:37.597Z,405.00
2018-12-13T12:32:37.588Z,438.75
2018-12-13T12:33:37.580Z,450.00
2018-12-13T12:34:37.570Z,483.75
2018-12-13T12:35:37.556Z,540.00
2018-12-13T12:36:37.550Z,573.75
2018-12-13T12:37:37.540Z,590.63
2018-12-13T12:38:37.532Z,489.38
2018-12-13T12:39:37.523Z,410.63
2018-12-13T12:40:37.513Z,343.13
2018-12-13T12:41:37.507Z,320.63
2018-12-13T12:42:37.490Z,309.38
2018-12-13T12:43:37.486Z,303.75
2018-12-13T12:44:37.530Z,326.25
2018-12-13T12:45:37.468Z,371.25
2018-12-13T12:46:37.458Z,399.38
2018-12-13T12:47:37.451Z,354.38
2018-12-13T12:48:37.442Z,399.38
2018-12-13T12:49:37.428Z,483.75
2018-12-13T12:50:37.424Z,523.13
2018-12-13T12:51:37.410Z,506.25
2018-12-13T12:52:37.400Z,500.63
2018-12-13T12:53:37.394Z,444.38
2018-12-13T12:54:37.382Z,421.88
2018-12-13T12:55:37.381Z,438.75
2018-12-13T12:56:37.363Z,461.25
2018-12-13T12:57:37.353Z,410.63
2018-12-13T12:58:37.344Z,376.88
2018-12-13T12:59:37.337Z,303.75